createdAt,value
2023-02-27T00:02:01.404Z,2.33
2023-02-27T00:04:28.297Z,2.50
2023-02-27T00:06:55.120Z,2.40
2023-02-27T00:09:21.900Z,2.30
2023-02-27T00:11:48.759Z,2.30
2023-02-27T00:14:15.539Z,2.37
2023-02-27T00:16:42.403Z,2.10
2023-02-27T00:19:09.162Z,3.03
2023-02-27T00:21:36.970Z,5.00
2023-02-27T00:24:04.272Z,3.70
2023-02-27T00:26:31.444Z,3.27
2023-02-27T00:28:58.214Z,2.40
2023-02-27T00:31:25.354Z,2.20
2023-02-27T00:33:52.427Z,2.20
2023-02-27T00:36:19.136Z,2.50
2023-02-27T00:38:45.870Z,2.30
2023-02-27T00:41:12.726Z,2.27
2023-02-27T00:43:39.471Z,2.30
2023-02-27T00:46:06.609Z,2.27
2023-02-27T00:48:33.469Z,2.60
2023-02-27T00:51:01.955Z,2.70
2023-02-27T00:53:30.823Z,2.40
2023-02-27T00:55:57.582Z,2.70
2023-02-27T00:58:24.365Z,2.40
2023-02-27T01:00:51.121Z,2.60
2023-02-27T01:03:17.845Z,2.70
2023-02-27T01:05:44.696Z,3.13
2023-02-27T01:08:11.427Z,2.57
2023-02-27T01:10:38.347Z,2.90
2023-02-27T01:13:06.744Z,2.67
2023-02-27T01:15:34.270Z,2.67
2023-02-27T01:18:01.021Z,2.60
2023-02-27T01:20:28.438Z,2.70
2023-02-27T01:22:55.171Z,2.30
2023-02-27T01:25:21.904Z,2.63
2023-02-27T01:27:48.655Z,2.60
2023-02-27T01:30:16.852Z,3.13
2023-02-27T01:32:45.381Z,2.70
2023-02-27T01:35:13.011Z,2.50
2023-02-27T01:37:39.907Z,2.97
2023-02-27T01:40:08.380Z,2.80
2023-02-27T01:42:35.532Z,2.90
2023-02-27T01:45:10.441Z,2.83
2023-02-27T01:47:41.459Z,2.80
2023-02-27T01:50:09.406Z,2.70
2023-02-27T01:52:37.778Z,3.07
2023-02-27T01:55:08.581Z,2.50
2023-02-27T01:57:36.164Z,3.00
2023-02-27T02:00:04.410Z,3.27
2023-02-27T02:02:42.603Z,3.00
2023-02-27T02:05:13.403Z,3.00
2023-02-27T02:07:41.853Z,2.80
2023-02-27T02:10:11.800Z,2.90
2023-02-27T02:12:40.588Z,3.30
2023-02-27T02:15:09.388Z,3.40
2023-02-27T02:17:59.294Z,3.20
2023-02-27T02:20:45.531Z,3.13
2023-02-27T02:23:38.983Z,3.33
2023-02-27T02:26:21.631Z,3.27
2023-02-27T02:29:14.372Z,3.10
2023-02-27T02:32:25.151Z,3.07
2023-02-27T02:35:28.944Z,3.30
2023-02-27T02:38:06.176Z,3.07
2023-02-27T02:40:56.069Z,3.53
2023-02-27T02:44:01.046Z,3.03
2023-02-27T02:46:47.274Z,3.10
2023-02-27T02:49:26.514Z,3.27
2023-02-27T02:52:09.115Z,3.30
2023-02-27T02:54:43.717Z,3.27
2023-02-27T02:57:14.705Z,3.20
2023-02-27T02:59:46.299Z,3.57
2023-02-27T03:02:18.475Z,3.30
2023-02-27T03:05:04.025Z,3.43
2023-02-27T03:07:38.610Z,3.40
2023-02-27T03:10:09.884Z,3.30
2023-02-27T03:12:40.006Z,3.37
2023-02-27T03:15:15.368Z,3.60
2023-02-27T03:18:18.526Z,3.40
2023-02-27T03:21:03.288Z,3.70
2023-02-27T03:23:38.237Z,3.50
2023-02-27T03:26:06.331Z,3.50
2023-02-27T03:28:39.196Z,3.87
2023-02-27T03:31:19.630Z,3.90
2023-02-27T03:33:55.772Z,3.70
2023-02-27T03:37:14.499Z,3.73
2023-02-27T03:39:52.798Z,3.97
2023-02-27T03:42:47.641Z,4.00
2023-02-27T03:46:01.352Z,3.60
2023-02-27T03:48:28.844Z,3.67
2023-02-27T03:50:56.532Z,4.37
2023-02-27T03:53:34.741Z,3.30
2023-02-27T03:56:04.921Z,3.93
2023-02-27T03:58:32.094Z,3.60
2023-02-27T04:00:59.187Z,3.40
2023-02-27T04:03:27.012Z,3.70
2023-02-27T04:05:53.926Z,3.57
2023-02-27T04:08:45.253Z,3.37
2023-02-27T04:11:42.772Z,3.57
2023-02-27T04:14:40.127Z,3.53
2023-02-27T04:17:21.680Z,3.60
2023-02-27T04:20:14.724Z,3.80
2023-02-27T04:22:58.183Z,3.50
2023-02-27T04:25:41.751Z,3.53
2023-02-27T04:28:32.826Z,3.73
2023-02-27T04:31:19.737Z,3.47
2023-02-27T04:33:51.996Z,4.27
2023-02-27T04:36:37.808Z,3.70
2023-02-27T04:39:15.346Z,3.80
2023-02-27T04:41:48.162Z,3.87
2023-02-27T04:44:17.223Z,3.83
2023-02-27T04:46:45.209Z,4.00
2023-02-27T04:49:24.959Z,4.20
2023-02-27T04:52:05.866Z,4.03
2023-02-27T04:54:43.124Z,4.23
2023-02-27T04:57:15.520Z,4.30
2023-02-27T04:59:46.796Z,4.37
2023-02-27T05:02:19.899Z,4.30
2023-02-27T05:04:48.618Z,4.10
2023-02-27T05:07:20.287Z,4.17
2023-02-27T05:09:53.450Z,4.17
2023-02-27T05:12:26.558Z,4.03
2023-02-27T05:15:01.897Z,4.83
2023-02-27T05:17:40.793Z,4.23
2023-02-27T05:20:09.101Z,4.50
2023-02-27T05:22:47.844Z,4.50
2023-02-27T05:25:31.837Z,4.83
2023-02-27T05:28:17.934Z,4.43
2023-02-27T05:31:09.832Z,4.87
2023-02-27T05:33:44.193Z,4.40
2023-02-27T05:36:19.178Z,4.67
2023-02-27T05:39:00.105Z,4.37
2023-02-27T05:41:45.298Z,4.43
2023-02-27T05:44:26.150Z,4.47
2023-02-27T05:46:58.292Z,4.80
2023-02-27T05:49:40.969Z,4.47
2023-02-27T05:52:12.021Z,4.73
2023-02-27T05:54:48.904Z,4.60
2023-02-27T05:57:23.041Z,4.40
2023-02-27T06:00:12.007Z,4.67
2023-02-27T06:02:40.339Z,4.30
2023-02-27T06:05:09.537Z,4.60
2023-02-27T06:07:36.867Z,4.40
2023-02-27T06:10:05.971Z,4.77
2023-02-27T06:12:32.808Z,4.80
2023-02-27T06:14:59.544Z,4.53
2023-02-27T06:17:26.266Z,5.00
2023-02-27T06:19:53.038Z,4.77
2023-02-27T06:22:19.784Z,4.30
2023-02-27T06:24:46.533Z,4.23
2023-02-27T06:27:13.281Z,4.10
2023-02-27T06:29:40.372Z,4.40
2023-02-27T06:32:07.161Z,4.50
2023-02-27T06:34:33.946Z,4.40
2023-02-27T06:37:02.601Z,4.33
2023-02-27T06:39:30.609Z,4.23
2023-02-27T06:41:57.346Z,4.67
2023-02-27T06:44:24.165Z,4.47
2023-02-27T06:46:50.979Z,4.80
2023-02-27T06:49:18.190Z,4.23
2023-02-27T06:51:45.179Z,4.13
2023-02-27T06:54:11.933Z,4.00
2023-02-27T06:56:38.818Z,4.40
2023-02-27T06:59:05.845Z,4.33
2023-02-27T07:01:32.592Z,4.37
2023-02-27T07:04:01.116Z,4.03
2023-02-27T07:07:32.612Z,4.23
2023-02-27T07:09:14.959Z,4.30
2023-02-27T07:11:41.730Z,4.20
2023-02-27T07:14:08.634Z,4.20
2023-02-27T07:16:35.467Z,4.40
2023-02-27T07:19:02.215Z,4.60
2023-02-27T07:21:28.960Z,4.73
2023-02-27T07:23:55.774Z,4.63
2023-02-27T07:26:22.534Z,4.83
2023-02-27T07:28:49.231Z,4.40
2023-02-27T07:31:16.036Z,4.73
2023-02-27T07:33:42.782Z,4.70
2023-02-27T07:36:09.669Z,4.87
2023-02-27T07:38:36.441Z,4.50
2023-02-27T07:41:03.209Z,4.60
2023-02-27T07:43:30.174Z,4.07
2023-02-27T07:45:57.145Z,4.13
2023-02-27T07:48:24.153Z,4.60
2023-02-27T07:50:50.868Z,4.93
2023-02-27T07:53:17.677Z,4.70
2023-02-27T07:55:44.422Z,4.33
2023-02-27T07:58:11.136Z,4.70
2023-02-27T08:00:38.250Z,4.40
2023-02-27T08:03:05.416Z,4.17
2023-02-27T08:05:32.291Z,4.23
2023-02-27T08:07:59.026Z,4.20
2023-02-27T08:10:25.811Z,4.33
2023-02-27T08:12:52.569Z,4.13
2023-02-27T08:15:19.364Z,4.60
2023-02-27T08:17:47.112Z,4.87
2023-02-27T08:20:15.049Z,4.77
2023-02-27T08:22:42.463Z,4.50
2023-02-27T08:25:11.221Z,5.10
2023-02-27T08:27:39.262Z,4.47
2023-02-27T08:30:08.570Z,4.60
2023-02-27T08:32:36.070Z,4.77
2023-02-27T08:35:03.473Z,4.40
2023-02-27T08:37:30.301Z,5.10
2023-02-27T08:39:57.165Z,4.80
2023-02-27T08:42:25.987Z,4.57
2023-02-27T08:44:53.589Z,4.63
2023-02-27T08:47:20.330Z,4.37
2023-02-27T08:49:47.132Z,5.27
2023-02-27T08:52:13.857Z,5.10
2023-02-27T08:54:40.626Z,5.10
2023-02-27T08:57:07.500Z,5.27
2023-02-27T08:59:34.340Z,5.40
2023-02-27T09:02:01.104Z,5.77
2023-02-27T09:04:27.934Z,4.97
2023-02-27T09:06:54.709Z,5.40
2023-02-27T09:09:23.727Z,4.70
2023-02-27T09:11:53.625Z,4.87
2023-02-27T09:14:20.511Z,4.50
2023-02-27T09:16:47.340Z,4.70
2023-02-27T09:19:16.834Z,4.60
2023-02-27T09:21:43.663Z,4.10
2023-02-27T09:24:19.836Z,4.97
2023-02-27T09:26:48.481Z,3.97
2023-02-27T09:29:15.576Z,4.33
2023-02-27T09:31:42.482Z,3.90
2023-02-27T09:34:09.710Z,4.43
2023-02-27T09:36:36.485Z,4.13
2023-02-27T09:39:03.566Z,4.20
2023-02-27T09:42:09.652Z,3.97
2023-02-27T09:44:46.580Z,3.80
2023-02-27T09:47:28.784Z,4.10
2023-02-27T09:50:17.123Z,3.73
2023-02-27T09:52:44.600Z,3.63
2023-02-27T09:55:21.295Z,3.73
2023-02-27T09:57:57.437Z,3.83
2023-02-27T10:00:51.509Z,3.50
2023-02-27T10:03:30.678Z,3.13
2023-02-27T10:06:26.637Z,3.47
2023-02-27T10:09:16.648Z,3.50
2023-02-27T10:12:02.217Z,3.47
2023-02-27T10:14:57.879Z,3.07
2023-02-27T10:17:50.014Z,3.70
2023-02-27T10:20:28.927Z,3.13
2023-02-27T10:22:59.237Z,3.07
2023-02-27T10:25:31.567Z,3.47
2023-02-27T10:28:11.040Z,3.30
2023-02-27T10:30:37.896Z,3.50
2023-02-27T10:33:36.009Z,3.13
2023-02-27T10:36:04.095Z,2.93
2023-02-27T10:38:34.125Z,3.20
2023-02-27T10:41:02.737Z,3.57
2023-02-27T10:43:29.676Z,3.20
2023-02-27T10:46:00.427Z,3.37
2023-02-27T10:48:27.345Z,3.40
2023-02-27T10:51:31.419Z,3.20
2023-02-27T10:54:20.763Z,3.20
2023-02-27T10:56:56.899Z,3.10
2023-02-27T10:59:41.650Z,2.93
2023-02-27T11:02:17.491Z,3.30
2023-02-27T11:04:56.202Z,3.20
2023-02-27T11:07:37.135Z,3.17
2023-02-27T11:10:18.833Z,3.60
2023-02-27T11:13:07.249Z,3.53
2023-02-27T11:15:36.676Z,3.23
2023-02-27T11:18:27.353Z,3.43
2023-02-27T11:20:55.368Z,3.23
2023-02-27T11:23:24.382Z,3.23
2023-02-27T11:26:08.526Z,3.50
2023-02-27T11:28:35.277Z,3.10
2023-02-27T11:31:14.709Z,3.63
2023-02-27T11:33:51.864Z,3.40
2023-02-27T11:36:19.175Z,3.30
2023-02-27T11:38:54.379Z,3.43
2023-02-27T11:41:32.855Z,3.00
2023-02-27T11:44:02.030Z,2.80
2023-02-27T11:46:47.953Z,3.40
2023-02-27T11:49:43.086Z,3.00
2023-02-27T11:52:22.090Z,3.30
2023-02-27T11:54:58.658Z,3.00
2023-02-27T11:57:39.349Z,3.30
2023-02-27T12:00:20.767Z,3.43
2023-02-27T12:03:16.808Z,2.80
2023-02-27T12:05:57.317Z,3.03
2023-02-27T12:08:33.900Z,3.17
2023-02-27T12:11:16.257Z,3.27
2023-02-27T12:13:51.813Z,2.97
2023-02-27T12:16:33.139Z,3.63
2023-02-27T12:19:18.492Z,3.50
2023-02-27T12:21:50.300Z,3.10
2023-02-27T12:24:25.684Z,3.20
2023-02-27T12:27:13.332Z,3.87
2023-02-27T12:29:47.899Z,3.20
2023-02-27T12:32:52.519Z,4.00
2023-02-27T12:35:28.004Z,3.13
2023-02-27T12:37:55.787Z,3.03
2023-02-27T12:40:43.420Z,3.00
2023-02-27T12:43:13.292Z,3.27
2023-02-27T12:46:00.382Z,3.17
2023-02-27T12:49:11.812Z,2.80
2023-02-27T12:51:41.710Z,3.03
2023-02-27T12:54:35.647Z,3.17
2023-02-27T12:57:09.725Z,3.07
2023-02-27T12:59:43.680Z,2.67
2023-02-27T13:02:29.498Z,2.67
2023-02-27T13:05:17.812Z,2.90
2023-02-27T13:07:59.709Z,3.00
2023-02-27T13:10:45.213Z,2.60
2023-02-27T13:13:17.988Z,2.60
2023-02-27T13:16:07.342Z,3.00
2023-02-27T13:18:45.494Z,2.93
2023-02-27T13:21:20.900Z,2.73
2023-02-27T13:23:58.292Z,2.40
2023-02-27T13:26:33.517Z,2.87
2023-02-27T13:29:00.974Z,2.50
2023-02-27T13:31:55.342Z,2.70
2023-02-27T13:34:38.761Z,2.70
2023-02-27T13:37:08.676Z,2.70
2023-02-27T13:39:47.497Z,2.90
2023-02-27T13:42:26.717Z,2.70
2023-02-27T13:44:54.295Z,3.30
2023-02-27T13:47:30.510Z,2.60
2023-02-27T13:49:59.053Z,2.90
2023-02-27T13:52:31.163Z,2.73
2023-02-27T13:55:06.268Z,3.20
2023-02-27T13:57:38.932Z,3.10
2023-02-27T14:00:27.638Z,2.67
2023-02-27T14:03:09.492Z,2.90
2023-02-27T14:05:40.050Z,3.40
2023-02-27T14:08:19.626Z,2.90
2023-02-27T14:11:14.510Z,2.17
2023-02-27T14:13:50.363Z,2.60
2023-02-27T14:16:39.127Z,2.57
2023-02-27T14:19:24.192Z,2.70
2023-02-27T14:22:10.724Z,3.23
2023-02-27T14:25:01.211Z,3.27
2023-02-27T14:27:44.319Z,2.93
2023-02-27T14:30:33.172Z,2.60
2023-02-27T14:33:17.816Z,2.57
2023-02-27T14:35:58.525Z,2.40
2023-02-27T14:38:26.939Z,3.10
2023-02-27T14:41:12.616Z,3.00
2023-02-27T14:43:55.126Z,2.40
2023-02-27T14:46:35.740Z,2.67
2023-02-27T14:49:15.813Z,2.30
2023-02-27T14:51:43.934Z,2.67
2023-02-27T14:54:15.480Z,2.80
2023-02-27T14:56:53.886Z,2.77
2023-02-27T14:59:26.481Z,2.40
2023-02-27T15:01:56.083Z,2.43
2023-02-27T15:04:26.931Z,4.20
2023-02-27T15:06:56.033Z,3.87
2023-02-27T15:09:27.036Z,3.30
2023-02-27T15:12:03.673Z,2.80
2023-02-27T15:14:37.607Z,2.73
2023-02-27T15:17:22.765Z,2.73
2023-02-27T15:20:21.614Z,2.30
2023-02-27T15:22:48.468Z,2.37
2023-02-27T15:25:37.295Z,2.63
2023-02-27T15:28:23.088Z,2.50
2023-02-27T15:30:51.249Z,2.87
2023-02-27T15:33:18.767Z,2.53
2023-02-27T15:35:46.597Z,2.80
2023-02-27T15:38:28.581Z,3.37
2023-02-27T15:40:57.174Z,2.80
2023-02-27T15:43:26.151Z,2.53
2023-02-27T15:45:53.879Z,2.87
2023-02-27T15:48:21.542Z,2.80
2023-02-27T15:50:58.319Z,2.70
2023-02-27T15:53:27.786Z,2.97
2023-02-27T15:55:58.856Z,2.80
2023-02-27T15:58:32.880Z,3.20
2023-02-27T16:01:07.352Z,4.80
2023-02-27T16:03:40.286Z,3.40
2023-02-27T16:06:19.941Z,4.27
2023-02-27T16:08:55.235Z,3.27
2023-02-27T16:11:24.791Z,2.90
2023-02-27T16:13:52.415Z,4.57
2023-02-27T16:16:28.590Z,3.13
2023-02-27T16:18:58.696Z,2.97
2023-02-27T16:21:27.500Z,2.70
2023-02-27T16:23:54.786Z,2.50
2023-02-27T16:26:39.252Z,2.60
2023-02-27T16:29:21.338Z,2.37
2023-02-27T16:31:56.070Z,2.43
2023-02-27T16:34:44.608Z,2.40
2023-02-27T16:37:30.615Z,2.60
2023-02-27T16:39:57.322Z,2.67
2023-02-27T16:42:24.147Z,2.60
2023-02-27T16:44:50.891Z,2.70
2023-02-27T16:47:17.628Z,2.67
2023-02-27T16:49:46.317Z,2.63
2023-02-27T16:52:13.132Z,2.50
2023-02-27T16:54:39.878Z,2.40
2023-02-27T16:57:06.640Z,2.77
2023-02-27T16:59:40.982Z,2.70
2023-02-27T17:02:13.158Z,2.80
2023-02-27T17:04:43.967Z,2.47
2023-02-27T17:07:17.092Z,3.00
2023-02-27T17:09:47.696Z,2.90
2023-02-27T17:12:14.962Z,3.10
2023-02-27T17:14:41.759Z,2.70
2023-02-27T17:17:10.768Z,2.50
2023-02-27T17:19:45.204Z,2.53
2023-02-27T17:22:12.271Z,2.60
2023-02-27T17:24:39.223Z,2.90
2023-02-27T17:27:06.059Z,3.37
2023-02-27T17:29:32.900Z,2.93
2023-02-27T17:31:59.707Z,2.83
2023-02-27T17:34:26.646Z,2.97
2023-02-27T17:36:53.454Z,2.80
2023-02-27T17:39:20.706Z,3.10
2023-02-27T17:41:47.899Z,3.00
2023-02-27T17:44:15.109Z,3.10
2023-02-27T17:46:42.001Z,2.90
2023-02-27T17:49:09.548Z,3.07
2023-02-27T17:51:36.374Z,3.27
2023-02-27T17:54:04.613Z,3.00
2023-02-27T17:56:31.846Z,3.23
2023-02-27T17:58:59.011Z,3.23
2023-02-27T18:01:26.518Z,3.33
2023-02-27T18:03:54.851Z,3.00
2023-02-27T18:06:23.679Z,2.97
2023-02-27T18:08:50.493Z,3.00
2023-02-27T18:11:20.147Z,2.90
2023-02-27T18:13:47.695Z,3.30
2023-02-27T18:16:14.722Z,2.90
2023-02-27T18:18:42.778Z,3.20
2023-02-27T18:21:15.449Z,3.00
2023-02-27T18:23:42.769Z,3.57
2023-02-27T18:26:28.979Z,5.13
2023-02-27T18:29:03.680Z,6.67
2023-02-27T18:31:33.487Z,8.20
2023-02-27T18:34:01.295Z,19.63
2023-02-27T18:36:29.625Z,14.40
2023-02-27T18:38:56.925Z,12.43
2023-02-27T18:41:23.849Z,8.37
2023-02-27T18:43:51.323Z,7.83
2023-02-27T18:46:18.604Z,6.50
2023-02-27T18:48:46.562Z,11.33
2023-02-27T18:51:15.400Z,10.60
2023-02-27T18:53:44.905Z,7.53
2023-02-27T18:56:13.821Z,5.87
2023-02-27T18:58:40.636Z,4.23
2023-02-27T19:01:08.356Z,4.17
2023-02-27T19:03:35.981Z,3.63
2023-02-27T19:06:02.882Z,4.10
2023-02-27T19:08:29.721Z,4.30
2023-02-27T19:10:57.624Z,3.67
2023-02-27T19:13:25.898Z,3.67
2023-02-27T19:15:53.263Z,3.70
2023-02-27T19:18:20.070Z,4.00
2023-02-27T19:20:46.909Z,4.37
2023-02-27T19:23:13.646Z,4.00
2023-02-27T19:25:42.010Z,3.90
2023-02-27T19:28:12.232Z,3.70
2023-02-27T19:30:39.737Z,3.80
2023-02-27T19:33:06.920Z,3.87
2023-02-27T19:35:33.703Z,3.70
2023-02-27T19:38:00.434Z,3.70
2023-02-27T19:40:28.552Z,3.67
2023-02-27T19:42:55.450Z,3.27
2023-02-27T19:45:23.134Z,3.30
2023-02-27T19:47:49.925Z,2.97
2023-02-27T19:50:17.094Z,3.77
2023-02-27T19:52:43.844Z,4.07
2023-02-27T19:55:10.787Z,3.90
2023-02-27T19:57:37.728Z,3.47
2023-02-27T20:00:08.675Z,3.67
2023-02-27T20:02:42.968Z,3.40
2023-02-27T20:05:11.899Z,3.50
2023-02-27T20:07:39.191Z,3.33
2023-02-27T20:10:06.319Z,3.33
2023-02-27T20:12:33.058Z,3.13
2023-02-27T20:15:06.943Z,3.40
2023-02-27T20:17:33.646Z,3.00
2023-02-27T20:20:00.575Z,3.20
2023-02-27T20:22:27.425Z,3.40
2023-02-27T20:24:57.367Z,3.10
2023-02-27T20:27:24.381Z,3.60
2023-02-27T20:29:56.191Z,3.73
2023-02-27T20:32:24.149Z,3.57
2023-02-27T20:34:51.717Z,3.13
2023-02-27T20:37:19.188Z,3.00
2023-02-27T20:39:46.118Z,3.60
2023-02-27T20:42:14.061Z,3.53
2023-02-27T20:44:41.852Z,3.50
2023-02-27T20:47:09.403Z,3.60
2023-02-27T20:49:36.663Z,3.60
2023-02-27T20:52:03.620Z,3.40
2023-02-27T20:54:30.440Z,3.80
2023-02-27T20:56:57.494Z,3.60
2023-02-27T20:59:25.496Z,3.23
2023-02-27T21:01:53.224Z,3.50
2023-02-27T21:04:23.354Z,3.27
2023-02-27T21:06:50.526Z,3.60
2023-02-27T21:09:18.726Z,3.20
2023-02-27T21:11:45.577Z,3.43
2023-02-27T21:14:12.612Z,3.53
2023-02-27T21:16:40.684Z,3.50
2023-02-27T21:19:08.474Z,3.23
2023-02-27T21:21:36.028Z,3.80
2023-02-27T21:24:02.933Z,3.70
2023-02-27T21:26:38.610Z,3.60
2023-02-27T21:29:17.668Z,3.47
2023-02-27T21:31:48.368Z,3.73
2023-02-27T21:34:21.513Z,3.30
2023-02-27T21:36:49.289Z,3.33
2023-02-27T21:39:19.077Z,3.93
2023-02-27T21:41:46.537Z,3.97
2023-02-27T21:44:15.462Z,3.63
2023-02-27T21:46:42.367Z,3.80
2023-02-27T21:49:14.880Z,3.43
2023-02-27T21:51:41.650Z,3.73
2023-02-27T21:54:11.164Z,3.80
2023-02-27T21:56:38.821Z,3.43
2023-02-27T21:59:05.977Z,3.50
2023-02-27T22:01:33.851Z,3.60
2023-02-27T22:04:01.940Z,3.37
2023-02-27T22:06:32.169Z,3.37
2023-02-27T22:09:01.496Z,4.03
2023-02-27T22:11:29.606Z,3.50
2023-02-27T22:13:56.564Z,4.53
2023-02-27T22:16:24.079Z,3.60
2023-02-27T22:18:51.707Z,3.57
2023-02-27T22:21:21.559Z,3.63
2023-02-27T22:23:49.317Z,3.70
2023-02-27T22:26:19.248Z,3.40
2023-02-27T22:28:46.220Z,3.80
2023-02-27T22:31:19.132Z,3.60
2023-02-27T22:33:48.638Z,3.40
2023-02-27T22:36:20.742Z,4.00
2023-02-27T22:38:48.241Z,3.77
2023-02-27T22:41:25.318Z,3.73
2023-02-27T22:43:52.385Z,3.70
2023-02-27T22:46:31.307Z,3.77
2023-02-27T22:49:00.611Z,3.50
2023-02-27T22:51:28.648Z,3.67
2023-02-27T22:53:58.067Z,3.50
2023-02-27T22:56:25.159Z,4.00
2023-02-27T22:58:51.893Z,3.40
2023-02-27T23:01:21.930Z,3.40
2023-02-27T23:03:51.319Z,3.20
2023-02-27T23:06:22.897Z,3.73
2023-02-27T23:08:49.719Z,3.70
2023-02-27T23:11:18.292Z,3.37
2023-02-27T23:13:45.338Z,3.70
2023-02-27T23:16:13.589Z,3.53
2023-02-27T23:18:42.244Z,3.07
2023-02-27T23:21:09.735Z,3.60
2023-02-27T23:23:36.716Z,3.20
2023-02-27T23:26:04.541Z,3.60
2023-02-27T23:28:32.549Z,3.20
2023-02-27T23:30:59.840Z,3.73
2023-02-27T23:33:28.008Z,3.80
2023-02-27T23:35:55.641Z,3.77
2023-02-27T23:38:22.349Z,4.40
2023-02-27T23:40:49.152Z,4.10
2023-02-27T23:43:34.892Z,4.00
2023-02-27T23:46:13.311Z,4.00
2023-02-27T23:48:40.467Z,3.50
2023-02-27T23:51:08.920Z,3.93
2023-02-27T23:53:38.184Z,4.10
2023-02-27T23:56:13.284Z,3.83
2023-02-27T23:58:40.053Z,3.90
